Time;durP1;ratioP1;P1;durP2;ratioP2;P2;SDS_P1;SDS_P2;PMS_P1;PMS_P2;Temp;Humidity;BMP_temperature;BMP_pressure;BME280_temperature;BME280_humidity;BME280_pressure;Samples;Min_cycle;Max_cycle;Signal;HPM_P1;HPM_P2
2021/06/23 00:01:46;;;;;;;9.40;8.60;;;;;;;18.47;74.52;100798.31;4901568;28;128289;-78
2021/06/23 00:04:12;;;;;;;8.77;8.02;;;;;;;18.78;73.83;100795.59;4911928;28;126731;-78
2021/06/23 00:06:38;;;;;;;9.50;8.60;;;;;;;18.92;73.13;100798.22;4921590;28;116543;-78
2021/06/23 00:09:04;;;;;;;8.25;7.55;;;;;;;18.90;72.84;100797.72;4904898;28;128736;-79
2021/06/23 00:11:49;;;;;;;7.22;6.53;;;;;;;18.92;72.31;100800.97;4872192;28;128088;-78
2021/06/23 00:14:15;;;;;;;7.30;6.70;;;;;;;18.92;72.17;100800.97;4892240;28;97911;-79
2021/06/23 00:16:41;;;;;;;7.10;6.50;;;;;;;18.93;71.98;100796.28;4890579;28;97848;-78
2021/06/23 00:19:07;;;;;;;6.90;6.40;;;;;;;18.92;71.66;100792.75;4897972;28;127604;-79
2021/06/23 00:21:33;;;;;;;7.10;6.50;;;;;;;18.92;71.94;100800.16;4923454;28;116802;-78
2021/06/23 00:23:59;;;;;;;7.38;6.80;;;;;;;18.65;72.90;100796.47;4916382;28;128346;-79
2021/06/23 00:26:25;;;;;;;7.63;7.05;;;;;;;18.67;73.11;100804.31;4908641;28;104743;-78
2021/06/23 00:28:51;;;;;;;8.13;7.53;;;;;;;18.53;73.00;100798.97;4912938;28;120124;-78
2021/06/23 00:31:18;;;;;;;7.57;6.95;;;;;;;18.74;73.01;100812.91;4921655;28;128232;-78
2021/06/23 00:33:46;;;;;;;7.57;6.95;;;;;;;18.86;72.73;100805.75;4921095;28;99167;-79
2021/06/23 00:36:12;;;;;;;8.05;7.35;;;;;;;18.77;72.56;100813.09;4918641;28;106948;-79
2021/06/23 00:38:38;;;;;;;7.95;7.38;;;;;;;18.70;72.38;100814.63;4899281;28;101056;-79
2021/06/23 00:41:04;;;;;;;8.10;7.45;;;;;;;18.92;72.05;100816.53;4888266;28;126712;-79
2021/06/23 00:43:30;;;;;;;8.35;7.57;;;;;;;18.88;71.92;100824.56;4908641;28;99618;-78
2021/06/23 00:45:56;;;;;;;8.05;7.35;;;;;;;19.03;71.17;100818.69;4924344;28;118116;-79
2021/06/23 00:48:28;;;;;;;7.78;7.13;;;;;;;19.14;70.80;100805.56;4901166;28;128113;-78
2021/06/23 00:50:55;;;;;;;7.57;7.07;;;;;;;19.25;70.27;100819.69;4892691;28;99056;-79
2021/06/23 00:53:21;;;;;;;7.60;7.07;;;;;;;19.24;70.43;100812.63;4902862;28;101304;-78
2021/06/23 00:55:50;;;;;;;7.57;6.95;;;;;;;19.20;70.57;100811.66;4889140;28;105466;-78
2021/06/23 00:58:17;;;;;;;7.90;7.30;;;;;;;19.00;70.55;100807.56;4893798;28;103198;-79
2021/06/23 01:00:43;;;;;;;7.80;7.03;;;;;;;19.08;70.62;100809.53;4922324;28;128699;-78
2021/06/23 01:03:10;;;;;;;7.82;7.32;;;;;;;19.19;70.16;100810.84;4918282;28;126158;-79
2021/06/23 01:05:36;;;;;;;7.32;6.70;;;;;;;18.95;71.10;100808.53;4889741;28;98184;-78
2021/06/23 01:08:03;;;;;;;7.38;6.80;;;;;;;19.09;71.29;100794.75;4924756;28;98482;-78
2021/06/23 01:10:31;;;;;;;7.80;7.20;;;;;;;19.11;71.16;100778.84;4908321;28;111354;-78
2021/06/23 01:13:30;;;;;;;8.98;8.18;;;;;;;19.12;71.10;100792.19;4939862;28;98310;-79
2021/06/23 01:15:59;;;;;;;8.50;7.80;;;;;;;19.16;70.97;100794.28;4941222;28;97809;-80
2021/06/23 01:18:25;;;;;;;9.85;8.10;;;;;;;19.10;71.12;100794.44;4897371;28;99708;-78
2021/06/23 01:20:51;;;;;;;8.88;7.93;;;;;;;19.08;71.67;100790.41;4905798;28;98949;-80
2021/06/23 01:23:17;;;;;;;8.18;7.47;;;;;;;19.08;71.47;100790.41;4904507;28;97937;-78
2021/06/23 01:25:46;;;;;;;8.93;8.23;;;;;;;19.02;72.33;100789.75;4904648;28;103397;-80
2021/06/23 01:28:12;;;;;;;9.02;8.27;;;;;;;18.98;72.29;100796.16;4905537;28;105043;-79
2021/06/23 01:30:38;;;;;;;9.73;8.93;;;;;;;19.01;72.40;100801.78;4919422;28;128219;-80
2021/06/23 01:33:05;;;;;;;9.05;8.25;;;;;;;18.95;73.06;100794.88;4887810;28;117441;-79
2021/06/23 01:35:31;;;;;;;11.35;9.57;;;;;;;19.07;72.90;100803.28;4888898;28;97955;-79
2021/06/23 01:38:01;;;;;;;10.70;9.80;;;;;;;19.10;72.54;100804.56;4905923;28;113423;-80
2021/06/23 01:40:27;;;;;;;10.55;9.48;;;;;;;19.04;72.58;100814.81;4888696;28;99685;-79
2021/06/23 01:42:53;;;;;;;10.88;9.98;;;;;;;18.93;73.04;100809.94;4871414;28;116012;-78
2021/06/23 01:45:19;;;;;;;12.05;11.05;;;;;;;18.84;73.37;100820.84;4904181;28;98001;-77
2021/06/23 01:47:45;;;;;;;10.82;9.93;;;;;;;18.94;72.90;100825.22;4887867;28;120593;-79
2021/06/23 01:50:14;;;;;;;11.35;10.38;;;;;;;18.87;73.25;100823.75;4905345;28;98788;-78
2021/06/23 01:52:41;;;;;;;11.75;10.70;;;;;;;18.60;74.25;100830.16;4905516;28;98311;-79
2021/06/23 01:55:07;;;;;;;12.88;11.68;;;;;;;18.57;74.49;100833.50;4932646;28;97915;-79
2021/06/23 01:57:38;;;;;;;11.68;10.68;;;;;;;18.67;74.31;100837.09;4904259;28;103128;-79
2021/06/23 02:00:06;;;;;;;12.13;11.13;;;;;;;18.57;74.89;100846.34;4905501;28;98510;-79
2021/06/23 02:02:36;;;;;;;11.70;10.55;;;;;;;18.65;74.55;100843.66;4920145;28;99368;-78
2021/06/23 02:05:13;;;;;;;11.52;10.60;;;;;;;18.80;74.28;100837.03;4905063;28;98125;-79
2021/06/23 02:08:14;;;;;;;11.18;10.27;;;;;;;18.79;74.07;100826.44;4903267;28;100554;-78
2021/06/23 02:10:54;;;;;;;12.73;11.52;;;;;;;18.82;73.98;100821.16;4893207;28;98076;-78
2021/06/23 02:13:29;;;;;;;13.75;12.55;;;;;;;18.85;74.16;100828.72;4875910;28;120330;-78
2021/06/23 02:16:09;;;;;;;14.05;12.73;;;;;;;18.77;74.20;100820.47;4922667;28;98035;-78
2021/06/23 02:18:37;;;;;;;14.15;12.85;;;;;;;18.80;74.37;100817.13;4913297;28;98664;-79
2021/06/23 02:21:04;;;;;;;13.77;12.57;;;;;;;18.97;73.97;100824.59;4922172;28;116208;-78
2021/06/23 02:23:30;;;;;;;12.85;11.85;;;;;;;18.89;73.95;100826.97;4879256;28;99275;-78
2021/06/23 02:25:56;;;;;;;13.85;12.50;;;;;;;19.00;73.57;100819.31;4903782;28;97828;-79
2021/06/23 02:28:22;;;;;;;13.18;12.07;;;;;;;19.06;73.29;100833.63;4888801;28;106125;-79
2021/06/23 02:30:49;;;;;;;13.85;12.38;;;;;;;18.97;73.84;100827.31;4886568;28;127447;-79
2021/06/23 02:33:15;;;;;;;14.30;13.10;;;;;;;18.74;74.05;100846.47;4918661;28;97956;-80
2021/06/23 02:35:41;;;;;;;12.75;11.65;;;;;;;18.84;73.88;100839.97;4922606;28;117648;-79
2021/06/23 02:38:07;;;;;;;13.50;12.40;;;;;;;18.90;73.74;100838.69;4922189;28;127172;-79
2021/06/23 02:40:34;;;;;;;12.55;11.30;;;;;;;18.92;73.44;100835.66;4905903;28;128077;-78
2021/06/23 02:43:00;;;;;;;13.60;12.25;;;;;;;18.95;73.69;100829.56;4922067;28;106189;-78
2021/06/23 02:45:27;;;;;;;12.73;11.60;;;;;;;18.80;74.34;100834.31;4889962;28;118612;-78
2021/06/23 02:47:53;;;;;;;12.90;11.70;;;;;;;18.95;73.61;100824.91;4920648;28;98570;-78
2021/06/23 02:50:19;;;;;;;13.00;11.82;;;;;;;18.92;73.90;100846.59;4887477;28;114376;-80
2021/06/23 02:52:45;;;;;;;13.35;12.15;;;;;;;18.93;73.66;100848.19;4894007;28;99601;-80
2021/06/23 02:55:19;;;;;;;13.98;12.55;;;;;;;18.96;73.53;100861.22;4871152;28;107276;-79
2021/06/23 02:57:45;;;;;;;14.02;12.77;;;;;;;18.89;73.68;100857.00;4901414;28;98157;-80
2021/06/23 03:00:12;;;;;;;13.88;12.48;;;;;;;18.96;73.46;100853.03;4922417;28;106176;-79
2021/06/23 03:02:38;;;;;;;13.40;12.20;;;;;;;18.91;73.54;100855.91;4905164;28;109528;-79
2021/06/23 03:05:05;;;;;;;14.60;13.30;;;;;;;18.94;73.44;100858.00;4909975;28;116810;-78
2021/06/23 03:07:31;;;;;;;14.98;13.38;;;;;;;18.96;73.88;100864.75;4942278;28;112680;-80
2021/06/23 03:10:11;;;;;;;14.13;12.82;;;;;;;19.01;73.54;100870.06;4911031;28;98422;-77
2021/06/23 03:12:37;;;;;;;13.55;12.35;;;;;;;19.05;73.62;100870.25;4926679;28;98925;-80
2021/06/23 03:15:05;;;;;;;14.25;12.95;;;;;;;19.04;73.36;100872.19;4941861;28;98015;-80
2021/06/23 03:17:31;;;;;;;14.18;12.68;;;;;;;18.99;72.94;100871.53;4909434;28;103489;-77
2021/06/23 03:19:57;;;;;;;13.25;12.02;;;;;;;18.95;73.05;100865.09;4906400;28;104302;-80
2021/06/23 03:22:23;;;;;;;12.73;11.52;;;;;;;19.02;72.95;100879.06;4906166;28;119782;-77
2021/06/23 03:24:50;;;;;;;11.40;10.38;;;;;;;18.96;72.25;100874.88;4891197;28;98878;-80
2021/06/23 03:27:16;;;;;;;10.73;9.63;;;;;;;18.98;71.99;100869.91;4874370;28;100893;-78
2021/06/23 03:29:42;;;;;;;9.70;8.80;;;;;;;18.97;71.70;100869.09;4889803;28;130622;-78
2021/06/23 03:32:10;;;;;;;9.70;8.80;;;;;;;19.00;71.49;100871.19;4917972;28;98436;-80
2021/06/23 03:34:37;;;;;;;9.98;8.43;;;;;;;18.85;70.92;100875.13;4925898;28;98004;-80
2021/06/23 03:37:04;;;;;;;9.40;8.40;;;;;;;18.95;71.08;100879.53;4893319;28;100148;-77
2021/06/23 03:39:30;;;;;;;9.23;8.18;;;;;;;18.95;70.70;100874.06;4893678;28;100017;-80
2021/06/23 03:41:56;;;;;;;9.38;8.40;;;;;;;18.89;70.67;100870.66;4941193;28;126553;-77
2021/06/23 03:44:22;;;;;;;9.18;7.78;;;;;;;18.99;71.08;100868.78;4925571;28;118054;-78
2021/06/23 03:46:48;;;;;;;8.65;7.85;;;;;;;18.99;70.69;100883.25;4896689;28;117184;-80
2021/06/23 03:49:14;;;;;;;9.40;8.50;;;;;;;19.01;70.53;100891.13;4905665;28;101371;-78
2021/06/23 03:51:40;;;;;;;9.50;8.45;;;;;;;18.93;70.97;100889.97;4888515;28;128635;-78
2021/06/23 03:54:06;;;;;;;9.48;8.35;;;;;;;18.96;70.81;100885.81;4905608;28;118648;-80
2021/06/23 03:56:32;;;;;;;10.98;8.68;;;;;;;18.96;71.20;100894.00;4939974;28;122321;-78
2021/06/23 03:58:58;;;;;;;9.43;8.50;;;;;;;18.97;71.39;100895.59;4924128;28;124765;-79
2021/06/23 04:01:24;;;;;;;9.23;8.32;;;;;;;18.95;71.51;100900.59;4934791;28;126529;-78
2021/06/23 04:03:50;;;;;;;10.15;9.15;;;;;;;18.92;71.31;100896.56;4905064;28;116667;-79
2021/06/23 04:06:16;;;;;;;10.23;9.23;;;;;;;18.96;71.09;100900.25;4889898;28;99482;-80
2021/06/23 04:08:42;;;;;;;10.10;9.13;;;;;;;18.99;70.96;100902.38;4921592;28;128881;-80
2021/06/23 04:11:08;;;;;;;10.18;9.27;;;;;;;18.96;71.03;100899.47;4889826;28;128286;-78
2021/06/23 04:13:34;;;;;;;10.20;9.30;;;;;;;19.01;71.08;100902.84;4905590;28;117093;-80
2021/06/23 04:16:00;;;;;;;9.68;8.68;;;;;;;19.01;70.96;100907.50;4923479;28;112460;-79
2021/06/23 04:18:26;;;;;;;10.75;8.63;;;;;;;19.08;69.93;100902.41;4890245;28;99045;-79
2021/06/23 04:20:52;;;;;;;9.60;8.55;;;;;;;19.00;70.44;100906.72;4905922;28;98498;-80
2021/06/23 04:23:19;;;;;;;8.90;8.00;;;;;;;18.80;70.84;100904.50;4921346;28;117881;-77
2021/06/23 04:25:45;;;;;;;8.38;7.57;;;;;;;19.04;69.52;100898.69;4905642;28;108805;-79
2021/06/23 04:28:11;;;;;;;7.15;6.45;;;;;;;19.13;69.20;100897.59;4909339;28;126638;-78
2021/06/23 04:30:37;;;;;;;8.77;6.75;;;;;;;19.18;68.54;100893.13;4942184;28;125495;-79
2021/06/23 04:33:03;;;;;;;7.43;6.60;;;;;;;19.23;68.56;100901.22;4925221;28;105365;-79
2021/06/23 04:35:29;;;;;;;7.10;6.40;;;;;;;19.16;68.51;100912.56;4941606;28;98671;-79
2021/06/23 04:37:55;;;;;;;8.48;7.00;;;;;;;19.07;68.72;100919.94;4906871;28;128585;-80
2021/06/23 04:40:22;;;;;;;7.20;5.97;;;;;;;19.04;68.72;100918.63;4931087;28;126537;-79
2021/06/23 04:42:48;;;;;;;6.68;5.97;;;;;;;19.39;68.15;100918.78;4904859;28;118103;-78
2021/06/23 04:45:14;;;;;;;6.78;6.07;;;;;;;19.48;67.63;100921.56;4904461;28;128049;-78
2021/06/23 04:47:40;;;;;;;9.05;6.68;;;;;;;19.57;67.80;100912.28;4906123;28;115622;-78
2021/06/23 04:50:08;;;;;;;8.15;6.22;;;;;;;19.59;66.88;100918.22;4934550;28;117007;-79
2021/06/23 04:52:36;;;;;;;6.93;6.18;;;;;;;19.50;67.47;100916.59;4930543;28;98313;-78
2021/06/23 04:55:04;;;;;;;6.80;5.75;;;;;;;19.40;67.17;100931.31;4923976;28;98152;-79
2021/06/23 04:57:30;;;;;;;7.35;5.47;;;;;;;19.53;66.64;100941.38;4922338;28;97763;-78
2021/06/23 04:59:56;;;;;;;7.55;5.97;;;;;;;19.38;67.53;100944.53;4903908;28;124002;-79
2021/06/23 05:02:22;;;;;;;8.13;5.88;;;;;;;19.18;67.96;100951.34;4905326;28;97905;-79
2021/06/23 05:04:48;;;;;;;8.70;5.80;;;;;;;19.19;67.25;100955.69;4905689;28;118239;-79
2021/06/23 05:07:14;;;;;;;6.90;5.53;;;;;;;19.15;68.01;100957.41;4921862;28;99574;-79
2021/06/23 05:09:41;;;;;;;8.00;5.90;;;;;;;19.34;67.47;100954.47;4888255;28;127788;-79
2021/06/23 05:12:08;;;;;;;7.60;6.55;;;;;;;19.48;67.73;100954.34;4888493;28;118433;-79
2021/06/23 05:14:34;;;;;;;7.07;6.35;;;;;;;19.38;67.46;100961.72;4922290;28;99056;-79
2021/06/23 05:17:00;;;;;;;7.45;6.45;;;;;;;19.63;67.63;100958.63;4905568;28;98956;-78
2021/06/23 05:19:26;;;;;;;7.82;6.55;;;;;;;19.71;67.47;100957.84;4904267;28;104907;-79
2021/06/23 05:21:52;;;;;;;8.00;6.40;;;;;;;19.68;67.67;100959.28;4920840;28;112129;-79
2021/06/23 05:24:19;;;;;;;9.15;7.07;;;;;;;19.75;67.28;100956.91;4904134;28;98988;-79
2021/06/23 05:26:45;;;;;;;8.70;6.80;;;;;;;19.73;67.34;100969.25;4888179;28;105636;-78
2021/06/23 05:29:11;;;;;;;8.15;6.18;;;;;;;19.68;67.32;100961.22;4887584;28;127514;-78
2021/06/23 05:31:37;;;;;;;7.32;5.97;;;;;;;19.66;66.90;100963.47;4904427;28;118931;-78
2021/06/23 05:34:04;;;;;;;6.45;5.85;;;;;;;19.62;67.27;100966.03;4905984;28;97987;-79
2021/06/23 05:36:30;;;;;;;7.68;6.68;;;;;;;19.50;67.39;100971.25;4905085;28;98672;-78
2021/06/23 05:38:56;;;;;;;8.88;6.57;;;;;;;19.56;67.15;100983.66;4904023;28;108106;-79
2021/06/23 05:41:22;;;;;;;9.57;6.93;;;;;;;19.46;67.80;100973.81;4920255;28;117651;-79
2021/06/23 05:43:49;;;;;;;7.30;6.18;;;;;;;19.57;67.67;100980.63;4933219;28;126951;-78
2021/06/23 05:46:15;;;;;;;9.50;6.93;;;;;;;19.70;67.35;100975.38;4909031;28;100246;-79
2021/06/23 05:48:41;;;;;;;9.35;7.88;;;;;;;19.70;67.22;100987.13;4939787;28;126948;-79
2021/06/23 05:51:08;;;;;;;10.85;9.85;;;;;;;19.69;67.16;100984.69;4923530;28;108931;-79
2021/06/23 05:53:34;;;;;;;9.10;8.25;;;;;;;19.76;67.12;100983.13;4922970;28;122597;-78
2021/06/23 05:56:00;;;;;;;12.40;11.10;;;;;;;19.79;66.85;100987.97;4940257;28;98038;-79
2021/06/23 05:58:26;;;;;;;10.27;8.32;;;;;;;19.33;68.12;100991.91;4907360;28;115075;-79
2021/06/23 06:00:52;;;;;;;38.13;34.55;;;;;;;19.57;67.69;100994.28;4924289;28;97885;-79
2021/06/23 06:03:18;;;;;;;11.85;9.90;;;;;;;19.51;68.24;100997.47;4920647;28;125590;-79
2021/06/23 06:05:46;;;;;;;27.15;24.77;;;;;;;19.52;68.18;100999.06;4871744;28;127829;-79
2021/06/23 06:08:12;;;;;;;16.00;14.50;;;;;;;19.66;67.44;100999.03;4919334;28;98390;-79
2021/06/23 06:10:38;;;;;;;26.98;24.15;;;;;;;19.61;67.77;101006.25;4920719;28;97817;-79
2021/06/23 06:13:05;;;;;;;10.60;7.70;;;;;;;19.51;67.83;101003.75;4886549;28;126156;-78
2021/06/23 06:15:32;;;;;;;8.73;7.90;;;;;;;19.82;67.09;100997.47;4904467;28;99001;-78
2021/06/23 06:18:04;;;;;;;15.30;13.85;;;;;;;19.93;66.83;101000.72;4918788;28;97922;-79
2021/06/23 06:20:31;;;;;;;30.52;27.63;;;;;;;19.97;66.44;101002.50;4872502;28;104428;-83
2021/06/23 06:22:57;;;;;;;8.75;7.85;;;;;;;19.57;67.38;101013.44;4888641;28;99862;-77
2021/06/23 06:25:23;;;;;;;9.50;8.52;;;;;;;19.68;67.23;101013.97;4903713;28;128170;-84
2021/06/23 06:27:49;;;;;;;11.43;8.02;;;;;;;19.36;68.51;101020.53;4903970;28;108558;-78
2021/06/23 06:30:16;;;;;;;9.07;7.78;;;;;;;19.46;67.84;101016.75;4906191;28;98044;-78
2021/06/23 06:32:42;;;;;;;9.50;8.45;;;;;;;19.56;67.69;101020.00;4903103;28;109469;-86
2021/06/23 06:35:09;;;;;;;14.25;10.18;;;;;;;19.78;68.95;101018.38;4872288;28;101747;-84
2021/06/23 06:37:35;;;;;;;11.60;9.98;;;;;;;19.98;69.21;101017.78;4921454;28;111292;-85
2021/06/23 06:40:01;;;;;;;12.02;9.48;;;;;;;20.07;68.88;101002.19;4886506;28;116119;-83
2021/06/23 06:42:27;;;;;;;21.67;14.70;;;;;;;19.98;74.87;101014.25;4871154;28;99520;-78
2021/06/23 06:44:53;;;;;;;22.45;12.02;;;;;;;19.69;70.89;101021.06;4901259;28;127780;-70
2021/06/23 06:47:19;;;;;;;12.30;10.35;;;;;;;19.52;70.60;101018.22;4918793;28;100411;-74
2021/06/23 06:49:45;;;;;;;13.20;11.85;;;;;;;19.75;75.10;101027.19;4918823;28;117444;-70
2021/06/23 06:52:11;;;;;;;12.02;10.70;;;;;;;19.37;69.63;101017.50;4921688;28;98191;-75
2021/06/23 06:54:37;;;;;;;13.18;11.75;;;;;;;19.78;74.42;101023.84;4920164;28;126776;-71
2021/06/23 06:57:04;;;;;;;11.93;10.38;;;;;;;19.33;72.04;101032.09;4921449;28;125187;-79
2021/06/23 06:59:30;;;;;;;11.55;10.35;;;;;;;19.38;69.69;101037.44;4940908;28;98160;-70
2021/06/23 07:01:56;;;;;;;13.35;11.95;;;;;;;19.78;72.77;101023.84;4940351;28;98867;-70
2021/06/23 07:04:22;;;;;;;12.43;11.13;;;;;;;19.95;69.51;101037.56;4937835;28;108777;-70
2021/06/23 07:06:48;;;;;;;11.18;10.15;;;;;;;19.93;68.99;101028.09;4938403;28;105737;-78
2021/06/23 07:09:15;;;;;;;12.18;9.70;;;;;;;20.18;67.93;101026.53;4906022;28;104570;-70
2021/06/23 07:11:41;;;;;;;10.75;9.68;;;;;;;20.28;69.83;101046.22;4938708;28;99077;-70
2021/06/23 07:14:07;;;;;;;11.23;9.77;;;;;;;20.42;69.77;101039.78;4940026;28;100680;-70
2021/06/23 07:16:33;;;;;;;12.18;9.23;;;;;;;20.19;68.71;101039.09;4940344;28;113903;-70
2021/06/23 07:19:00;;;;;;;10.35;8.68;;;;;;;20.47;67.44;101045.09;4939661;28;117808;-70
2021/06/23 07:21:26;;;;;;;11.43;9.15;;;;;;;20.54;70.86;101046.28;4940681;28;98563;-75
2021/06/23 07:23:58;;;;;;;11.70;10.27;;;;;;;20.35;69.48;101046.53;4921864;28;98687;-70
2021/06/23 07:26:25;;;;;;;10.38;8.98;;;;;;;20.37;67.44;101048.97;4928534;28;99181;-71
2021/06/23 07:28:54;;;;;;;10.20;9.07;;;;;;;20.22;70.16;101055.69;4921309;28;97994;-76
2021/06/23 07:32:07;;;;;;;9.13;8.20;;;;;;;19.86;66.70;101053.97;4920066;28;98474;-75
2021/06/23 07:34:35;;;;;;;11.00;8.80;;;;;;;19.64;68.53;101056.75;4913557;28;98473;-76
2021/06/23 07:37:05;;;;;;;10.57;9.48;;;;;;;19.74;71.12;101052.94;4921211;28;98372;-75
2021/06/23 07:39:32;;;;;;;10.65;8.60;;;;;;;19.83;70.31;101053.78;4902661;28;98045;-76
2021/06/23 07:41:58;;;;;;;11.63;8.45;;;;;;;20.00;71.38;101044.81;4918402;28;98469;-70
2021/06/23 07:44:36;;;;;;;10.95;8.65;;;;;;;20.25;68.80;101037.81;4918736;28;127320;-75
2021/06/23 07:47:05;;;;;;;8.43;7.45;;;;;;;20.13;64.99;101030.22;4920936;28;97869;-70
2021/06/23 07:49:34;;;;;;;9.25;7.57;;;;;;;20.20;64.71;101029.75;4921879;28;98033;-76
2021/06/23 07:52:08;;;;;;;8.70;7.57;;;;;;;20.53;65.01;101020.03;4922952;28;99215;-77
2021/06/23 08:10:46;;;;;;;9.85;8.18;;;;;;;20.28;63.66;101029.00;4923578;28;97735;-80
2021/06/23 08:13:13;;;;;;;10.98;8.23;;;;;;;19.94;66.96;101033.22;4906736;28;98715;-80
2021/06/23 08:15:42;;;;;;;8.85;7.95;;;;;;;20.25;64.07;101024.94;4913625;28;98404;-78
2021/06/23 08:18:08;;;;;;;9.88;7.63;;;;;;;20.57;66.25;101037.41;4902106;28;97860;-71
2021/06/23 08:20:34;;;;;;;9.02;7.65;;;;;;;20.54;63.97;101031.78;4902874;28;105303;-71
2021/06/23 08:23:00;;;;;;;8.77;7.47;;;;;;;20.55;64.99;101036.94;4901659;28;119933;-71
2021/06/23 08:25:26;;;;;;;7.93;7.22;;;;;;;20.69;63.74;101031.31;4885938;28;98637;-71
2021/06/23 08:27:52;;;;;;;8.00;7.20;;;;;;;20.29;63.22;101028.66;4902840;28;109992;-79
2021/06/23 08:30:19;;;;;;;8.05;6.85;;;;;;;;;;4870547;28;97818;-70
2021/06/23 08:32:45;;;;;;;8.05;6.72;;;;;;;20.66;63.22;101031.13;4902988;28;98761;-80
2021/06/23 08:35:12;;;;;;;7.55;6.70;;;;;;;20.50;63.09;101028.88;4886042;28;101105;-71
2021/06/23 08:37:39;;;;;;;6.93;6.22;;;;;;;20.79;61.95;101021.97;4885590;28;99759;-71
2021/06/23 08:40:07;;;;;;;9.25;6.93;;;;;;;20.44;62.92;101026.59;4903271;28;109304;-79
2021/06/23 08:42:33;;;;;;;7.13;5.90;;;;;;;20.61;61.94;101025.84;4903474;28;97808;-71
2021/06/23 08:44:59;;;;;;;8.35;6.10;;;;;;;20.58;62.31;101030.81;4903379;28;98522;-71
2021/06/23 08:47:25;;;;;;;7.78;6.18;;;;;;;20.58;60.98;101032.75;4884969;28;127223;-80
2021/06/23 08:49:51;;;;;;;9.57;5.85;;;;;;;20.89;60.33;101038.06;4903973;28;112710;-80
2021/06/23 08:52:17;;;;;;;9.90;6.43;;;;;;;20.98;60.79;101035.31;4901249;28;98171;-71
2021/06/23 08:54:45;;;;;;;8.35;6.38;;;;;;;20.79;61.51;101043.91;4903128;28;99307;-72
2021/06/23 08:57:11;;;;;;;8.82;6.93;;;;;;;21.13;62.70;101037.56;4901084;28;97830;-80
2021/06/23 08:59:41;;;;;;;8.45;6.82;;;;;;;21.40;62.15;101032.88;4883524;28;117107;-71
2021/06/23 09:02:12;;;;;;;9.10;6.88;;;;;;;21.52;59.56;101039.28;4902605;28;98978;-72
2021/06/23 09:04:58;;;;;;;10.63;6.90;;;;;;;20.99;60.13;101047.91;4903369;28;98849;-72
2021/06/23 09:07:44;;;;;;;7.60;6.57;;;;;;;21.51;59.84;101050.59;4902051;28;98170;-81
2021/06/23 09:10:28;;;;;;;8.43;6.22;;;;;;;20.99;60.58;101058.88;4902420;28;98076;-72
2021/06/23 09:13:06;;;;;;;8.23;6.55;;;;;;;21.48;59.41;101057.53;4902030;28;98804;-71
2021/06/23 09:15:41;;;;;;;9.07;6.47;;;;;;;21.92;58.09;101057.38;4902442;28;97863;-79
2021/06/23 09:18:18;;;;;;;7.30;6.60;;;;;;;21.72;57.77;101059.72;4914179;28;98686;-72
2021/06/23 09:20:45;;;;;;;10.13;6.40;;;;;;;21.16;58.91;101066.28;4921081;28;98057;-72
2021/06/23 09:23:12;;;;;;;8.77;6.60;;;;;;;20.45;60.03;101066.53;4922033;28;98806;-72
2021/06/23 09:25:39;;;;;;;6.30;5.70;;;;;;;20.96;59.18;101057.56;4921540;28;121287;-72
2021/06/23 09:28:13;;;;;;;7.85;5.47;;;;;;;21.15;59.13;101059.19;4904145;28;98186;-79
2021/06/23 09:30:42;;;;;;;6.15;5.50;;;;;;;20.56;60.06;101059.66;4889081;28;97881;-72
2021/06/23 09:33:25;;;;;;;7.50;5.93;;;;;;;20.78;62.74;101066.91;4911810;28;98222;-79
2021/06/23 09:35:58;;;;;;;6.05;5.45;;;;;;;20.99;59.50;101056.94;4902907;28;98497;-72
2021/06/23 09:38:36;;;;;;;7.18;6.13;;;;;;;20.95;60.44;101058.72;4901915;28;98006;-80
2021/06/23 09:41:22;;;;;;;9.05;6.68;;;;;;;20.61;59.74;101062.22;4903306;28;97867;-79
2021/06/23 09:43:53;;;;;;;8.25;5.43;;;;;;;20.43;61.70;101064.09;4901006;28;98905;-72
2021/06/23 09:46:33;;;;;;;7.70;5.78;;;;;;;20.46;60.55;101065.41;4914980;28;98550;-80
2021/06/23 09:49:14;;;;;;;6.78;5.90;;;;;;;20.65;60.90;101070.63;4888089;28;99881;-80
2021/06/23 09:51:54;;;;;;;6.60;5.90;;;;;;;20.91;61.09;101073.38;4920966;28;98034;-73
2021/06/23 09:54:23;;;;;;;6.45;5.65;;;;;;;20.68;59.89;101069.97;4921347;28;108486;-80
2021/06/23 09:56:49;;;;;;;7.05;5.63;;;;;;;20.54;59.73;101076.38;4919815;28;105699;-73
2021/06/23 09:59:37;;;;;;;9.02;5.85;;;;;;;20.51;59.39;101076.22;4921144;28;98553;-81
2021/06/23 10:02:04;;;;;;;9.77;6.10;;;;;;;20.28;60.22;101079.06;4905997;28;98259;-72
2021/06/23 10:04:34;;;;;;;7.63;5.75;;;;;;;20.04;61.30;101081.38;4919357;28;115381;-72
2021/06/23 10:07:02;;;;;;;7.70;5.90;;;;;;;20.15;61.02;101082.69;4920328;28;98725;-80
2021/06/23 10:09:29;;;;;;;8.05;6.15;;;;;;;20.03;60.63;101072.34;4922446;28;98301;-73
2021/06/23 10:12:03;;;;;;;6.32;5.68;;;;;;;20.10;63.41;101069.97;4922198;28;97732;-80
2021/06/23 10:14:32;;;;;;;6.72;5.68;;;;;;;20.08;62.10;101074.97;4905857;28;98768;-73
2021/06/23 10:17:03;;;;;;;7.10;5.72;;;;;;;20.39;63.62;101067.78;4901824;28;97770;-80
2021/06/23 10:19:29;;;;;;;7.43;6.68;;;;;;;20.23;64.36;101070.97;4885374;28;98028;-80
2021/06/23 10:21:56;;;;;;;9.48;6.32;;;;;;;20.11;63.57;101079.00;4900943;28;98116;-73
2021/06/23 10:24:23;;;;;;;6.63;5.75;;;;;;;20.34;62.04;101075.03;4868395;28;98286;-73
2021/06/23 10:26:51;;;;;;;6.60;5.82;;;;;;;20.28;63.07;101070.84;4899586;28;99034;-79
2021/06/23 10:29:33;;;;;;;7.15;5.70;;;;;;;20.35;62.42;101073.09;4898902;28;116286;-79
2021/06/23 10:32:00;;;;;;;6.25;5.45;;;;;;;20.41;61.53;101060.88;4902335;28;98881;-73
2021/06/23 10:34:26;;;;;;;6.43;5.80;;;;;;;20.17;62.50;101080.47;4901061;28;114930;-74
2021/06/23 10:36:53;;;;;;;6.40;5.78;;;;;;;20.36;61.69;101063.78;4901867;28;98584;-73
2021/06/23 10:39:20;;;;;;;7.55;5.93;;;;;;;20.56;61.13;101082.38;4883230;28;98585;-73
2021/06/23 10:41:52;;;;;;;5.85;5.30;;;;;;;20.56;60.11;101076.88;4892352;28;97856;-80
2021/06/23 10:44:27;;;;;;;8.52;5.32;;;;;;;20.16;60.16;101099.91;4902931;28;98330;-80
2021/06/23 10:47:00;;;;;;;7.68;5.18;;;;;;;20.21;61.17;101108.81;4920750;28;98162;-80
2021/06/23 10:49:51;;;;;;;6.40;5.68;;;;;;;20.00;65.03;101111.31;4887797;28;100724;-73
2021/06/23 10:52:24;;;;;;;8.57;5.95;;;;;;;20.14;65.65;101113.94;4921419;28;98246;-79
2021/06/23 10:54:54;;;;;;;7.70;7.00;;;;;;;20.31;68.22;101111.25;4921009;28;98207;-81
2021/06/23 10:57:38;;;;;;;9.07;7.10;;;;;;;20.41;68.46;101107.44;4903647;28;98041;-77
2021/06/23 11:00:11;;;;;;;9.38;7.18;;;;;;;20.38;69.45;101116.25;4914683;28;98405;-73
2021/06/23 11:02:42;;;;;;;8.50;7.53;;;;;;;20.52;67.09;101110.72;4900779;28;97862;-74
2021/06/23 11:05:15;;;;;;;8.48;7.03;;;;;;;20.66;67.54;101105.09;4901578;28;99305;-79
2021/06/23 11:07:49;;;;;;;9.75;7.00;;;;;;;20.80;65.47;101103.81;4901682;28;98065;-80
2021/06/23 11:10:15;;;;;;;7.95;7.10;;;;;;;20.83;65.63;101105.13;4914143;28;105402;-79
2021/06/23 11:12:48;;;;;;;7.88;7.07;;;;;;;20.94;65.56;101111.88;4921502;28;98003;-80
2021/06/23 11:15:27;;;;;;;9.63;7.20;;;;;;;20.59;68.26;101117.34;4920979;28;99316;-74
2021/06/23 11:17:55;;;;;;;7.85;7.15;;;;;;;20.55;66.60;101110.88;4887468;28;101251;-80
2021/06/23 11:20:21;;;;;;;8.43;7.45;;;;;;;20.83;67.44;101110.59;4918626;28;97972;-75
2021/06/23 11:22:48;;;;;;;8.20;7.40;;;;;;;20.89;67.48;101105.75;4921505;28;97729;-76
2021/06/23 11:25:34;;;;;;;8.45;7.25;;;;;;;20.96;66.73;101106.91;4910684;28;111436;-78
2021/06/23 11:28:10;;;;;;;8.95;8.05;;;;;;;20.82;69.21;101119.94;4887059;28;98006;-75
2021/06/23 11:30:51;;;;;;;8.35;7.53;;;;;;;21.14;66.53;101102.22;4904753;28;98109;-81
2021/06/23 11:33:30;;;;;;;9.15;8.25;;;;;;;21.15;69.52;101114.81;4903352;28;98108;-74
2021/06/23 11:36:01;;;;;;;8.90;7.45;;;;;;;21.18;67.66;101116.91;4904299;28;98494;-81
2021/06/23 11:38:27;;;;;;;9.18;8.27;;;;;;;21.21;68.66;101110.75;4898557;28;113834;-81
2021/06/23 11:40:54;;;;;;;12.27;7.88;;;;;;;21.11;68.62;101115.78;4901019;28;127601;-80